Time;durP1;ratioP1;P1;durP2;ratioP2;P2;SDS_P1;SDS_P2;PMS_P1;PMS_P2;Temp;Humidity;BMP_temperature;BMP_pressure;BME280_temperature;BME280_humidity;BME280_pressure;Samples;Min_cycle;Max_cycle;Signal;HPM_P1;HPM_P2
2022/04/05 00:00:57;;;;;;;17.07;8.40;;;;;;;2.90;62.98;99837.27;1500237;86;21662;-84
2022/04/05 00:03:24;;;;;;;13.67;9.97;;;;;;;2.91;62.55;99829.81;1491193;86;22772;-82
2022/04/05 00:05:51;;;;;;;12.93;9.07;;;;;;;2.92;62.48;99825.41;1497599;87;21587;-81
2022/04/05 00:08:17;;;;;;;11.87;8.47;;;;;;;2.91;62.43;99822.45;1490221;87;21732;-81
2022/04/05 00:10:44;;;;;;;13.47;8.23;;;;;;;2.92;62.23;99822.31;1490365;87;22865;-82
2022/04/05 00:13:11;;;;;;;15.07;8.33;;;;;;;2.89;62.32;99822.55;1491654;87;22102;-83
2022/04/05 00:15:38;;;;;;;15.97;9.47;;;;;;;2.90;62.19;99816.84;1497424;86;21581;-82
2022/04/05 00:18:05;;;;;;;17.30;9.40;;;;;;;2.91;62.15;99818.52;1490805;86;23635;-83
2022/04/05 00:20:32;;;;;;;12.53;8.13;;;;;;;2.88;62.22;99815.66;1485734;87;22029;-82
2022/04/05 00:22:59;;;;;;;15.00;10.40;;;;;;;2.89;62.08;99815.18;1495193;86;21814;-82
2022/04/05 00:25:26;;;;;;;14.53;9.23;;;;;;;2.88;61.97;99810.91;1495617;87;22595;-84
2022/04/05 00:27:53;;;;;;;15.73;9.97;;;;;;;2.86;62.12;99797.11;1490168;86;21481;-84
2022/04/05 00:30:20;;;;;;;16.17;9.37;;;;;;;2.85;62.19;99803.27;1501986;87;22738;-82
2022/04/05 00:32:47;;;;;;;13.90;9.07;;;;;;;2.84;62.42;99801.61;1471176;86;21492;-81
2022/04/05 00:35:14;;;;;;;11.97;8.80;;;;;;;2.79;62.52;99797.19;1481321;88;22430;-82
2022/04/05 00:37:41;;;;;;;15.27;10.23;;;;;;;2.78;62.25;99796.36;1469712;88;21603;-81
2022/04/05 00:40:10;;;;;;;15.60;9.30;;;;;;;2.77;62.57;99789.96;1469917;87;21631;-82
2022/04/05 00:42:37;;;;;;;13.07;9.50;;;;;;;2.70;62.81;99787.80;1494407;86;23204;-82
2022/04/05 00:45:06;;;;;;;13.43;8.93;;;;;;;2.69;63.01;99782.67;1496915;86;22158;-85
2022/04/05 00:47:35;;;;;;;15.07;10.03;;;;;;;2.68;62.98;99779.23;1499772;86;22616;-82
2022/04/05 00:50:06;;;;;;;19.40;9.27;;;;;;;2.66;63.22;99771.14;1497840;87;21704;-82
2022/04/05 00:52:33;;;;;;;15.28;10.80;;;;;;;2.63;63.33;99774.81;1499207;86;22502;-81
2022/04/05 00:55:02;;;;;;;15.60;11.03;;;;;;;2.63;63.53;99769.59;1497183;86;21383;-83
2022/04/05 00:57:31;;;;;;;18.17;10.50;;;;;;;2.63;63.43;99768.28;1496195;87;21616;-81
2022/04/05 01:00:03;;;;;;;16.93;11.47;;;;;;;2.65;63.49;99766.40;1506225;86;21439;-81
2022/04/05 01:02:36;;;;;;;15.93;11.00;;;;;;;2.65;63.57;99762.95;1497946;86;21690;-82
2022/04/05 01:05:05;;;;;;;15.50;10.73;;;;;;;2.71;63.32;99750.73;1484359;86;21558;-81
2022/04/05 01:07:34;;;;;;;14.37;10.70;;;;;;;2.75;63.40;99752.64;1485086;87;21582;-82
2022/04/05 01:10:06;;;;;;;16.40;10.50;;;;;;;2.80;63.32;99751.84;1497737;87;22143;-82
2022/04/05 01:12:33;;;;;;;15.70;10.93;;;;;;;2.83;63.38;99755.53;1489761;86;21533;-82
2022/04/05 01:15:02;;;;;;;19.43;10.77;;;;;;;2.86;63.40;99757.91;1497170;87;21581;-83
2022/04/05 01:17:29;;;;;;;15.30;11.03;;;;;;;2.89;63.40;99748.05;1491832;86;21576;-82
2022/04/05 01:19:56;;;;;;;18.17;11.40;;;;;;;2.93;63.19;99749.50;1493477;86;21681;-81
2022/04/05 01:22:23;;;;;;;19.90;11.00;;;;;;;2.93;63.25;99739.50;1469282;86;21767;-81
2022/04/05 01:24:51;;;;;;;17.33;10.90;;;;;;;2.97;63.14;99745.35;1467406;87;21561;-82
2022/04/05 01:27:19;;;;;;;16.93;12.43;;;;;;;3.01;63.04;99750.69;1486614;87;21562;-82
2022/04/05 01:29:47;;;;;;;16.47;10.97;;;;;;;2.99;63.24;99747.34;1492282;87;22061;-82
2022/04/05 01:32:15;;;;;;;17.93;11.27;;;;;;;3.01;63.08;99746.29;1487434;86;23910;-82
2022/04/05 01:34:42;;;;;;;22.73;11.50;;;;;;;3.01;62.96;99739.75;1470596;87;21638;-83
2022/04/05 01:37:10;;;;;;;17.23;11.93;;;;;;;3.03;62.80;99745.70;1487337;87;21568;-82
2022/04/05 01:39:39;;;;;;;16.17;10.80;;;;;;;3.06;62.68;99738.94;1488314;87;21763;-82
2022/04/05 01:42:12;;;;;;;14.67;10.80;;;;;;;3.08;62.57;99738.36;1482629;87;21577;-81
2022/04/05 01:44:42;;;;;;;18.87;11.80;;;;;;;3.12;62.46;99738.47;1479686;87;21620;-82
2022/04/05 01:47:12;;;;;;;26.47;12.03;;;;;;;3.13;62.38;99736.68;1475775;87;21573;-84
2022/04/05 01:49:43;;;;;;;17.77;10.75;;;;;;;3.15;62.13;99729.08;1477425;87;21442;-83
2022/04/05 01:52:11;;;;;;;19.73;11.73;;;;;;;3.16;62.02;99721.61;1485932;87;22639;-82
2022/04/05 01:54:39;;;;;;;14.20;9.80;;;;;;;3.18;61.88;99731.11;1496845;87;21360;-85
2022/04/05 01:57:07;;;;;;;18.27;12.13;;;;;;;3.18;61.62;99724.09;1490891;86;21781;-84
2022/04/05 01:59:38;;;;;;;18.63;11.13;;;;;;;3.18;61.61;99719.34;1493466;87;21574;-85
2022/04/05 02:02:08;;;;;;;15.13;10.48;;;;;;;3.16;61.65;99713.77;1485739;87;21538;-84
2022/04/05 02:04:36;;;;;;;17.87;12.33;;;;;;;3.12;61.28;99707.09;1481079;86;21487;-84
2022/04/05 02:07:15;;;;;;;17.93;11.47;;;;;;;3.13;60.96;99700.91;1472930;87;21548;-81
2022/04/05 02:09:43;;;;;;;15.67;11.10;;;;;;;3.16;61.17;99708.54;1473693;88;21568;-84
2022/04/05 02:12:10;;;;;;;20.90;12.47;;;;;;;3.14;61.13;99702.59;1482935;88;22447;-82
2022/04/05 02:14:38;;;;;;;14.20;10.73;;;;;;;3.13;61.00;99693.05;1464448;88;21499;-84
2022/04/05 02:17:07;;;;;;;14.63;10.27;;;;;;;3.09;61.05;99692.95;1472472;88;21631;-82
2022/04/05 02:19:36;;;;;;;19.47;12.10;;;;;;;3.12;61.00;99692.71;1473774;87;21603;-84
2022/04/05 02:22:04;;;;;;;19.90;10.50;;;;;;;3.06;61.04;99694.49;1476727;87;23064;-84
2022/04/05 02:24:31;;;;;;;15.77;9.03;;;;;;;3.06;61.03;99685.34;1480242;88;21536;-83
2022/04/05 02:26:58;;;;;;;20.13;11.87;;;;;;;3.05;61.03;99691.53;1487073;87;22567;-83
2022/04/05 02:29:25;;;;;;;18.33;12.83;;;;;;;3.05;60.78;99682.83;1481010;88;21565;-81
2022/04/05 02:31:52;;;;;;;18.90;11.70;;;;;;;3.08;61.19;99687.82;1456614;88;21652;-85
2022/04/05 02:34:19;;;;;;;19.20;12.73;;;;;;;3.10;60.67;99682.84;1479131;86;21570;-82
2022/04/05 02:36:46;;;;;;;21.53;11.33;;;;;;;3.13;60.79;99687.00;1483598;88;21597;-83
2022/04/05 02:39:13;;;;;;;18.57;11.70;;;;;;;3.11;61.03;99691.06;1477395;87;21582;-83
2022/04/05 02:41:40;;;;;;;21.63;13.00;;;;;;;3.10;60.76;99674.99;1467905;87;21428;-81
2022/04/05 02:44:07;;;;;;;17.87;11.63;;;;;;;3.09;60.89;99673.34;1457913;88;22530;-85
2022/04/05 02:46:34;;;;;;;18.63;11.83;;;;;;;3.06;61.16;99670.97;1452164;89;22671;-84
2022/04/05 02:49:01;;;;;;;24.17;11.70;;;;;;;3.06;61.09;99677.50;1458771;89;21751;-82
2022/04/05 02:51:28;;;;;;;16.97;10.97;;;;;;;3.07;61.11;99668.70;1485174;88;22468;-84
2022/04/05 02:53:55;;;;;;;19.67;10.63;;;;;;;3.01;61.20;99667.86;1468885;88;21689;-87
2022/04/05 02:56:22;;;;;;;19.17;12.00;;;;;;;3.00;61.20;99665.38;1480700;86;21763;-85
2022/04/05 02:58:49;;;;;;;14.70;11.13;;;;;;;2.94;61.64;99658.36;1485159;86;21564;-85
2022/04/05 03:01:16;;;;;;;16.10;10.87;;;;;;;2.90;61.65;99657.39;1478850;87;21650;-84
2022/04/05 03:03:43;;;;;;;15.43;11.30;;;;;;;2.89;61.83;99658.36;1479886;87;22731;-84
2022/04/05 03:06:11;;;;;;;16.50;10.23;;;;;;;2.86;61.87;99659.90;1468628;88;21638;-84
2022/04/05 03:08:38;;;;;;;16.17;10.50;;;;;;;2.88;61.79;99670.59;1479569;88;21773;-84
2022/04/05 03:11:06;;;;;;;18.90;12.27;;;;;;;2.88;62.02;99681.53;1472852;88;21607;-85
2022/04/05 03:13:33;;;;;;;16.53;10.03;;;;;;;2.85;62.20;99672.59;1478537;88;21562;-84
2022/04/05 03:16:00;;;;;;;16.70;10.23;;;;;;;2.83;62.51;99664.05;1483598;88;21470;-83
2022/04/05 03:18:27;;;;;;;18.47;10.70;;;;;;;2.78;62.50;99681.86;1487240;87;21694;-85
2022/04/05 03:20:54;;;;;;;18.40;12.27;;;;;;;2.75;62.52;99676.87;1475103;87;21498;-82
2022/04/05 03:23:22;;;;;;;18.87;11.57;;;;;;;2.75;62.51;99681.61;1475965;87;22673;-87
2022/04/05 03:25:49;;;;;;;22.57;12.60;;;;;;;2.72;62.62;99676.62;1477567;88;21642;-82
2022/04/05 03:28:18;;;;;;;17.77;10.07;;;;;;;2.68;63.03;99676.50;1480879;87;22557;-84
2022/04/05 03:30:47;;;;;;;19.13;11.10;;;;;;;2.64;63.17;99679.80;1462303;88;21634;-85
2022/04/05 03:33:15;;;;;;;15.17;11.33;;;;;;;2.61;63.23;99664.83;1479678;88;21694;-81
2022/04/05 03:35:42;;;;;;;17.70;11.37;;;;;;;2.61;63.35;99673.50;1476396;88;21580;-82
2022/04/05 03:38:10;;;;;;;15.40;10.10;;;;;;;2.59;63.34;99667.58;1478812;88;21874;-81
2022/04/05 03:40:37;;;;;;;16.70;11.20;;;;;;;2.53;63.64;99657.56;1441175;91;21732;-81
2022/04/05 03:43:05;;;;;;;20.53;11.60;;;;;;;2.56;63.78;99657.36;1430222;90;21605;-82
2022/04/05 03:45:32;;;;;;;16.80;10.43;;;;;;;2.55;63.66;99657.46;1437412;91;21590;-85
2022/04/05 03:47:59;;;;;;;14.67;9.23;;;;;;;2.51;63.93;99651.64;1438730;88;21634;-84
2022/04/05 03:50:26;;;;;;;16.87;10.77;;;;;;;2.52;63.90;99658.52;1484945;88;21665;-86
2022/04/05 03:52:53;;;;;;;16.47;11.37;;;;;;;2.52;63.92;99642.02;1479815;88;22136;-82
2022/04/05 03:55:20;;;;;;;14.93;9.93;;;;;;;2.48;64.06;99644.86;1477104;87;21468;-83
2022/04/05 03:57:47;;;;;;;14.73;9.43;;;;;;;2.46;64.36;99640.22;1471206;88;21696;-83
2022/04/05 04:00:15;;;;;;;14.80;10.37;;;;;;;2.45;64.13;99662.55;1487087;86;21499;-83
2022/04/05 04:02:43;;;;;;;20.20;10.83;;;;;;;2.48;63.97;99640.95;1477201;87;21759;-83
2022/04/05 04:05:10;;;;;;;14.13;9.87;;;;;;;2.46;64.17;99638.09;1476908;87;22579;-85
2022/04/05 04:07:39;;;;;;;15.23;10.43;;;;;;;2.46;64.20;99640.70;1471453;88;22612;-82
2022/04/05 04:10:08;;;;;;;21.00;11.63;;;;;;;2.43;64.57;99640.94;1481791;87;21620;-86
2022/04/05 04:12:35;;;;;;;14.43;11.10;;;;;;;2.40;64.38;99646.39;1484875;87;23551;-84
2022/04/05 04:15:02;;;;;;;17.37;11.03;;;;;;;2.37;64.50;99638.78;1490610;87;21457;-83
2022/04/05 04:17:29;;;;;;;19.60;11.90;;;;;;;2.39;64.51;99635.59;1459041;89;21653;-85
2022/04/05 04:19:56;;;;;;;26.67;10.97;;;;;;;2.40;64.47;99626.80;1462326;89;21407;-86
2022/04/05 04:22:24;;;;;;;15.47;10.57;;;;;;;2.40;64.54;99632.02;1454976;87;21663;-84
2022/04/05 04:24:51;;;;;;;20.63;10.63;;;;;;;2.42;64.56;99630.14;1476425;87;21716;-86
2022/04/05 04:27:18;;;;;;;13.23;10.20;;;;;;;2.42;64.54;99634.05;1480890;87;21529;-86
2022/04/05 04:29:45;;;;;;;14.50;10.67;;;;;;;2.41;64.65;99625.84;1481190;87;21554;-82
2022/04/05 04:32:12;;;;;;;14.20;10.03;;;;;;;2.41;64.83;99629.28;1487968;87;21586;-84
2022/04/05 04:34:39;;;;;;;14.80;10.03;;;;;;;2.39;64.69;99626.45;1482478;87;21578;-83
2022/04/05 04:37:06;;;;;;;15.43;10.00;;;;;;;2.41;64.75;99633.67;1489629;87;22445;-84
2022/04/05 04:39:34;;;;;;;16.20;9.93;;;;;;;2.44;64.47;99638.67;1490860;87;21578;-84
2022/04/05 04:42:01;;;;;;;18.33;11.23;;;;;;;2.46;64.56;99640.70;1489599;87;21617;-84
2022/04/05 04:44:28;;;;;;;15.43;10.50;;;;;;;2.47;64.60;99634.52;1482661;87;22066;-84
2022/04/05 04:46:55;;;;;;;13.80;9.97;;;;;;;2.46;64.48;99640.70;1478831;87;21535;-84
2022/04/05 04:49:22;;;;;;;15.87;10.23;;;;;;;2.51;64.80;99633.36;1483320;87;21689;-88
2022/04/05 04:51:49;;;;;;;20.13;9.67;;;;;;;2.54;64.41;99642.27;1485068;87;21650;-87
2022/04/05 04:54:16;;;;;;;14.60;10.57;;;;;;;2.60;64.37;99637.88;1483489;87;22409;-87
2022/04/05 04:56:43;;;;;;;17.50;12.13;;;;;;;2.60;64.62;99639.19;1482044;87;21531;-85
2022/04/05 04:59:10;;;;;;;23.10;11.13;;;;;;;2.61;64.49;99642.14;1487194;87;21538;-85
2022/04/05 05:01:37;;;;;;;16.47;10.87;;;;;;;2.62;64.49;99639.91;1483457;87;21435;-87
2022/04/05 05:04:04;;;;;;;12.63;9.90;;;;;;;2.64;64.43;99638.47;1475007;86;21628;-86
2022/04/05 05:06:32;;;;;;;14.70;8.60;;;;;;;2.70;64.28;99641.48;1477378;88;22769;-86
2022/04/05 05:08:59;;;;;;;13.03;10.37;;;;;;;2.68;64.06;99631.61;1459749;87;21853;-88
2022/04/05 05:11:26;;;;;;;15.17;10.40;;;;;;;2.68;64.21;99637.31;1476985;87;21622;-86
2022/04/05 05:13:54;;;;;;;14.87;9.93;;;;;;;2.73;64.08;99640.86;1477403;87;21636;-86
2022/04/05 05:16:21;;;;;;;14.00;8.93;;;;;;;2.76;64.10;99636.70;1481194;87;22414;-88
2022/04/05 05:18:48;;;;;;;14.73;10.30;;;;;;;2.76;64.19;99632.31;1477598;86;21646;-85
2022/04/05 05:21:17;;;;;;;17.00;10.77;;;;;;;2.80;64.23;99644.69;1478704;87;21688;-85
2022/04/05 05:23:44;;;;;;;17.57;10.67;;;;;;;2.76;64.24;99634.09;1490316;87;21419;-84
2022/04/05 05:26:11;;;;;;;18.33;11.07;;;;;;;2.79;64.09;99637.78;1476251;87;21565;-87
2022/04/05 05:28:38;;;;;;;23.60;10.57;;;;;;;2.84;64.17;99646.11;1477568;88;21481;-90
2022/04/05 05:31:04;;;;;;;13.73;9.60;;;;;;;2.83;64.15;99643.97;1461206;87;21597;-81
2022/04/05 05:33:31;;;;;;;20.70;10.70;;;;;;;2.82;64.25;99640.16;1487877;87;22665;-80
2022/04/05 05:35:59;;;;;;;15.90;10.97;;;;;;;2.85;64.20;99651.68;1487787;87;22121;-80
2022/04/05 05:38:27;;;;;;;16.93;12.00;;;;;;;2.86;64.37;99655.98;1487874;87;21566;-81
2022/04/05 05:40:54;;;;;;;17.33;11.50;;;;;;;2.92;64.45;99655.50;1490553;87;21448;-80
2022/04/05 05:43:23;;;;;;;14.63;10.20;;;;;;;2.98;64.36;99655.03;1486996;87;21675;-80
2022/04/05 05:45:50;;;;;;;14.63;9.03;;;;;;;3.02;64.29;99651.25;1486024;87;21579;-80
2022/04/05 05:48:18;;;;;;;15.63;10.27;;;;;;;3.09;64.16;99655.03;1488094;87;22588;-79
2022/04/05 05:50:45;;;;;;;22.47;13.17;;;;;;;3.15;64.09;99653.73;1480534;87;21561;-82
2022/04/05 05:53:12;;;;;;;22.13;12.23;;;;;;;3.12;64.28;99653.49;1482964;87;21710;-81
2022/04/05 05:55:40;;;;;;;13.73;10.37;;;;;;;3.12;64.22;99654.80;1493776;87;24066;-87
2022/04/05 05:58:08;;;;;;;18.30;10.20;;;;;;;3.19;64.22;99646.47;1490913;87;22491;-87
2022/04/05 06:00:35;;;;;;;15.13;10.73;;;;;;;3.22;64.28;99654.08;1489624;87;21641;-88
2022/04/05 06:03:03;;;;;;;13.43;10.80;;;;;;;3.24;64.20;99655.63;1466238;86;21599;-86
2022/04/05 06:05:31;;;;;;;14.50;9.10;;;;;;;3.26;64.18;99653.73;1510788;86;21654;-90
2022/04/05 06:07:58;;;;;;;20.00;12.73;;;;;;;3.24;64.40;99657.41;1506585;86;21649;-89
2022/04/05 06:10:25;;;;;;;13.97;9.93;;;;;;;3.31;64.45;99649.43;1518151;86;21618;-94
2022/04/05 06:12:55;;;;;;;19.17;11.23;;;;;;;3.27;64.44;99641.00;1514611;86;21688;-88
2022/04/05 06:15:25;;;;;;;20.53;10.43;;;;;;;3.30;64.56;99643.86;1515436;86;21727;-91
2022/04/05 06:17:53;;;;;;;15.28;10.90;;;;;;;3.29;64.51;99640.89;1506046;86;21582;-93
2022/04/05 06:20:29;;;;;;;14.67;10.50;;;;;;;3.35;64.40;99636.48;1515288;86;21488;-91
2022/04/05 06:23:00;;;;;;;18.53;10.90;;;;;;;3.40;64.63;99626.50;1512364;86;21583;-90
2022/04/05 06:25:33;;;;;;;16.40;11.20;;;;;;;3.45;64.51;99639.20;1512822;86;22521;-90
2022/04/05 06:28:05;;;;;;;13.67;9.93;;;;;;;3.44;64.41;99638.37;1515763;86;21400;-86
2022/04/05 06:30:35;;;;;;;15.37;11.47;;;;;;;3.47;64.78;99648.59;1509605;86;21641;-87
2022/04/05 06:33:14;;;;;;;27.27;12.57;;;;;;;3.49;64.69;99656.33;1520091;86;21722;-87
2022/04/05 06:35:50;;;;;;;15.77;10.37;;;;;;;3.54;64.92;99636.70;1512742;86;21764;-91
2022/04/05 06:38:18;;;;;;;19.30;11.37;;;;;;;3.57;65.23;99649.53;1516391;86;21726;-86
2022/04/05 06:40:45;;;;;;;20.77;10.57;;;;;;;3.61;64.71;99637.03;1509126;86;22745;-86
2022/04/05 06:43:15;;;;;;;16.40;11.27;;;;;;;3.73;64.71;99639.14;1517939;86;21732;-87
2022/04/05 06:45:43;;;;;;;16.03;12.27;;;;;;;3.73;64.71;99639.14;1511916;86;21757;-85
2022/04/05 06:48:10;;;;;;;13.40;11.10;;;;;;;3.83;64.75;99649.24;1517723;86;21796;-88
2022/04/05 06:50:40;;;;;;;15.77;11.10;;;;;;;3.95;64.50;99631.23;1509709;86;21676;-86
2022/04/05 06:53:09;;;;;;;18.17;10.83;;;;;;;4.09;64.13;99638.45;1512342;86;21770;-87
2022/04/05 06:55:37;;;;;;;15.63;10.80;;;;;;;4.16;64.45;99640.91;1491787;86;21787;-82
2022/04/05 06:58:05;;;;;;;18.77;12.00;;;;;;;4.21;63.91;99637.44;1518749;86;22768;-84
2022/04/05 07:00:33;;;;;;;15.77;10.33;;;;;;;4.21;63.91;99637.44;1515173;86;23202;-82
2022/04/05 07:03:02;;;;;;;17.07;11.17;;;;;;;4.29;64.13;99630.61;1512293;86;21954;-82
2022/04/05 07:05:29;;;;;;;19.63;11.13;;;;;;;4.44;64.10;99640.29;1516453;86;22235;-85
2022/04/05 07:07:57;;;;;;;15.43;10.73;;;;;;;4.53;63.70;99638.20;1523251;86;22148;-86
2022/04/05 07:10:25;;;;;;;25.37;16.80;;;;;;;4.53;63.70;99638.20;1523151;86;22114;-86
2022/04/05 07:12:52;;;;;;;74.97;36.97;;;;;;;4.76;63.46;99638.07;1516754;86;23326;-89
2022/04/05 07:15:19;;;;;;;29.70;18.10;;;;;;;4.76;63.46;99638.07;1515411;86;22036;-86
2022/04/05 07:17:46;;;;;;;18.10;11.87;;;;;;;4.87;63.17;99640.61;1513765;86;22171;-87
2022/04/05 07:20:13;;;;;;;17.40;11.67;;;;;;;4.95;63.17;99634.73;1520540;86;22064;-90
2022/04/05 07:22:47;;;;;;;13.93;10.57;;;;;;;5.10;62.68;99637.83;1518852;86;22041;-88
2022/04/05 07:25:15;;;;;;;18.63;11.60;;;;;;;5.19;62.58;99642.27;1509926;86;21975;-87
2022/04/05 07:27:47;;;;;;;23.70;12.57;;;;;;;5.29;62.58;99632.63;1512500;86;22072;-86
2022/04/05 07:30:13;;;;;;;17.10;10.73;;;;;;;5.39;62.57;99643.17;1516258;86;22205;-87
2022/04/05 07:32:43;;;;;;;15.53;11.20;;;;;;;5.54;62.18;99635.75;1466368;89;23081;-88
2022/04/05 07:35:12;;;;;;;16.90;10.93;;;;;;;5.54;62.18;99635.75;1468706;89;22298;-87
2022/04/05 07:37:39;;;;;;;23.77;11.93;;;;;;;5.58;61.94;99643.23;1469910;89;22228;-88
2022/04/05 07:40:10;;;;;;;20.97;12.03;;;;;;;5.58;61.94;99643.23;1466195;88;21455;-86
2022/04/05 07:42:40;;;;;;;16.47;11.47;;;;;;;5.64;61.81;99641.87;1466004;89;21359;-85
2022/04/05 07:45:08;;;;;;;18.37;11.87;;;;;;;5.67;62.08;99640.28;1458709;89;21367;-85
2022/04/05 07:47:37;;;;;;;16.07;11.77;;;;;;;5.75;61.96;99615.95;1466087;89;21470;-84
2022/04/05 07:50:06;;;;;;;19.57;13.17;;;;;;;5.85;62.29;99633.39;1455837;89;22306;-85
2022/04/05 07:52:33;;;;;;;18.73;11.87;;;;;;;5.98;61.89;99641.51;1459215;89;21441;-85
2022/04/05 07:55:01;;;;;;;13.70;10.50;;;;;;;6.02;62.07;99629.78;1440397;89;21411;-85
2022/04/05 07:57:28;;;;;;;18.40;11.13;;;;;;;6.05;61.82;99632.12;1458830;89;21381;-85
2022/04/05 07:59:57;;;;;;;13.93;10.93;;;;;;;6.08;61.64;99630.53;1451953;89;21508;-85
2022/04/05 08:02:23;;;;;;;20.07;12.23;;;;;;;6.09;61.64;99626.44;1457606;89;21418;-85
2022/04/05 08:04:50;;;;;;;15.83;11.43;;;;;;;6.16;61.86;99628.05;1454633;89;21607;-85
2022/04/05 08:07:17;;;;;;;14.03;10.13;;;;;;;6.27;61.83;99631.00;1446201;89;21374;-84
2022/04/05 08:09:44;;;;;;;23.80;11.97;;;;;;;6.41;61.73;99635.00;1458707;89;21367;-85
2022/04/05 08:12:11;;;;;;;17.57;9.83;;;;;;;6.52;61.33;99629.11;1459319;89;21507;-86
2022/04/05 08:14:38;;;;;;;13.50;10.07;;;;;;;6.60;60.82;99631.53;1450772;89;21389;-84
2022/04/05 08:17:06;;;;;;;15.93;11.63;;;;;;;6.62;60.62;99617.73;1456600;89;21539;-85
2022/04/05 08:19:33;;;;;;;13.70;9.97;;;;;;;6.77;60.51;99604.00;1447563;89;21375;-85
2022/04/05 08:22:00;;;;;;;15.77;9.87;;;;;;;6.96;60.32;99616.73;1452710;89;22417;-85
2022/04/05 08:24:27;;;;;;;14.97;10.47;;;;;;;7.13;59.71;99609.89;1455859;89;21337;-85
2022/04/05 08:26:54;;;;;;;15.43;9.97;;;;;;;7.26;59.81;99612.20;1456529;89;22276;-86
2022/04/05 08:29:21;;;;;;;18.50;12.23;;;;;;;7.29;59.47;99625.89;1439592;89;21359;-86
2022/04/05 08:31:48;;;;;;;15.67;10.83;;;;;;;7.23;60.08;99616.77;1454289;89;21582;-86
2022/04/05 08:34:15;;;;;;;21.23;10.97;;;;;;;7.19;60.38;99611.47;1451656;89;21330;-86
2022/04/05 08:36:42;;;;;;;20.33;11.13;;;;;;;7.17;60.79;99606.02;1451778;89;21478;-86
2022/04/05 08:39:08;;;;;;;17.57;12.33;;;;;;;7.16;60.59;99597.29;1458690;89;21515;-86
2022/04/05 08:41:37;;;;;;;15.00;11.00;;;;;;;7.16;61.49;99604.33;1458179;89;21323;-86
2022/04/05 08:44:06;;;;;;;16.73;9.97;;;;;;;7.11;60.87;99598.21;1457991;89;21338;-86
2022/04/05 08:46:35;;;;;;;18.30;11.67;;;;;;;7.11;61.55;99599.52;1453400;89;21514;-85
2022/04/05 08:49:03;;;;;;;14.93;10.00;;;;;;;7.06;61.80;99594.36;1458115;89;22491;-85
2022/04/05 08:51:30;;;;;;;18.10;11.63;;;;;;;7.04;61.61;99601.06;1449236;89;21375;-85
2022/04/05 08:53:58;;;;;;;18.23;11.83;;;;;;;7.11;61.91;99602.65;1456640;89;21366;-86
2022/04/05 08:56:27;;;;;;;19.27;12.00;;;;;;;7.11;61.71;99590.31;1453116;89;21329;-85
2022/04/05 08:58:54;;;;;;;15.00;11.00;;;;;;;7.08;61.79;99604.23;1451634;89;21478;-86
2022/04/05 09:01:21;;;;;;;20.77;12.27;;;;;;;7.10;61.87;99595.22;1456883;89;21442;-86
2022/04/05 09:03:49;;;;;;;15.47;10.70;;;;;;;7.11;61.92;99600.84;1453126;89;21323;-86
2022/04/05 09:06:32;;;;;;;14.90;10.67;;;;;;;7.16;61.99;99589.40;1443997;89;21458;-86
2022/04/05 09:09:13;;;;;;;17.20;10.87;;;;;;;7.23;61.65;99565.45;1442425;90;21451;-85
2022/04/05 09:11:50;;;;;;;12.45;10.13;;;;;;;7.29;61.93;99584.27;1435502;90;21282;-85
2022/04/05 09:14:30;;;;;;;13.50;10.40;;;;;;;7.41;61.74;99585.22;1441072;90;21472;-86
2022/04/05 09:17:08;;;;;;;24.87;10.55;;;;;;;7.49;61.45;99581.03;1440062;90;21385;-87
2022/04/05 09:19:49;;;;;;;12.67;9.90;;;;;;;7.62;61.59;99574.44;1440386;91;21414;-86
2022/04/05 09:22:34;;;;;;;13.65;9.85;;;;;;;7.79;61.47;99582.48;1442217;90;21421;-87
2022/04/05 09:25:08;;;;;;;17.03;10.60;;;;;;;7.83;60.52;99562.78;1434589;91;21429;-86
2022/04/05 09:27:51;;;;;;;12.13;8.67;;;;;;;7.88;60.39;99546.86;1441119;90;21355;-87
2022/04/05 09:30:24;;;;;;;11.53;7.70;;;;;;;8.01;59.99;99550.41;1442125;90;21355;-86
2022/04/05 09:32:52;;;;;;;12.77;8.17;;;;;;;8.10;59.78;99557.39;1435038;90;21443;-86
2022/04/05 09:35:23;;;;;;;14.20;8.57;;;;;;;8.31;59.60;99558.36;1438553;90;21451;-86
2022/04/05 09:37:50;;;;;;;16.23;8.47;;;;;;;8.40;59.24;99565.05;1438608;90;22419;-86
2022/04/05 09:40:25;;;;;;;11.93;6.87;;;;;;;8.52;58.99;99575.70;1437907;90;21429;-86
2022/04/05 09:42:59;;;;;;;10.43;7.23;;;;;;;8.62;58.27;99565.03;1439037;90;21399;-86
2022/04/05 09:45:50;;;;;;;11.27;7.27;;;;;;;8.66;57.92;99563.72;1431812;90;21384;-87
2022/04/05 09:48:24;;;;;;;14.60;6.37;;;;;;;8.69;57.87;99582.73;1438601;89;21414;-86
2022/04/05 09:51:14;;;;;;;12.07;6.87;;;;;;;8.72;57.79;99589.00;1439438;90;21296;-86
2022/04/05 09:53:51;;;;;;;8.30;6.30;;;;;;;8.73;58.19;99581.91;1431741;91;21436;-85
2022/04/05 09:56:41;;;;;;;10.87;6.27;;;;;;;8.64;58.08;99595.55;1440736;90;21392;-87
2022/04/05 09:59:22;;;;;;;9.27;6.53;;;;;;;8.63;58.29;99587.77;1438441;91;21429;-86
2022/04/05 10:01:49;;;;;;;;;;;;;;;8.63;58.50;99575.91;1446638;90;21377;-86
2022/04/05 10:04:18;;;;;;;8.60;6.10;;;;;;;8.61;58.52;99588.44;1439928;91;20347;-87
2022/04/05 10:06:47;;;;;;;8.70;5.57;;;;;;;8.64;58.57;99583.67;1442842;89;21465;-86
2022/04/05 10:09:17;;;;;;;8.83;5.90;;;;;;;8.66;58.80;99575.59;1440645;90;21666;-87
2022/04/05 10:11:46;;;;;;;13.43;6.43;;;;;;;8.68;58.28;99580.23;1438957;91;22288;-88
2022/04/05 10:14:23;;;;;;;11.60;6.23;;;;;;;8.74;58.60;99570.36;1432005;90;22035;-85
2022/04/05 10:16:52;;;;;;;9.07;6.17;;;;;;;8.84;58.42;99572.41;1438671;90;21370;-86
2022/04/05 10:19:22;;;;;;;9.87;6.80;;;;;;;8.99;58.25;99570.83;1439119;91;21332;-86
2022/04/05 10:21:49;;;;;;;11.00;6.53;;;;;;;9.09;58.04;99565.91;1441434;90;21451;-86
2022/04/05 10:24:19;;;;;;;16.57;9.50;;;;;;;9.20;57.80;99572.23;1432968;91;21758;-86
2022/04/05 10:26:49;;;;;;;10.57;6.97;;;;;;;9.25;56.99;99562.84;1442287;90;21420;-83
2022/04/05 10:29:18;;;;;;;8.53;5.28;;;;;;;9.26;56.87;99557.06;1439224;91;21384;-82
2022/04/05 10:32:22;;;;;;;11.10;7.73;;;;;;;9.28;56.54;99566.98;1446355;90;21607;-83
2022/04/05 10:35:04;;;;;;;32.80;16.47;;;;;;;9.32;56.80;99555.12;1434698;91;21399;-84
2022/04/05 10:37:37;;;;;;;12.77;7.50;;;;;;;9.33;56.83;99554.13;1434322;91;21614;-84
2022/04/05 10:40:10;;;;;;;17.10;8.20;;;;;;;9.30;56.08;99550.48;1442126;90;21392;-83
2022/04/05 10:42:46;;;;;;;12.33;8.33;;;;;;;9.33;56.83;99566.01;1439627;90;21348;-79
2022/04/05 10:45:23;;;;;;;11.50;8.40;;;;;;;9.49;56.89;99557.28;1436523;90;21377;-80
2022/04/05 10:48:17;;;;;;;11.47;8.13;;;;;;;9.48;55.87;99569.67;1437695;90;22308;-83
2022/04/05 10:51:01;;;;;;;24.20;14.50;;;;;;;9.56;55.94;99560.13;1441151;90;22440;-84
2022/04/05 10:54:17;;;;;;;16.07;10.13;;;;;;;9.66;55.74;99537.83;1431455;90;21472;-84
2022/04/05 10:56:11;;;;;;;19.70;10.70;;;;;;;9.69;55.73;99544.11;1445852;87;21540;-82
2022/04/05 10:58:54;;;;;;;17.23;11.10;;;;;;;9.73;55.65;99551.23;1455800;87;21360;-83
2022/04/05 11:01:25;;;;;;;11.57;8.83;;;;;;;9.74;54.95;99546.27;1459387;87;21428;-82
2022/04/05 11:04:17;;;;;;;11.50;9.00;;;;;;;9.77;54.25;99530.59;1459433;87;21634;-82
2022/04/05 11:07:06;;;;;;;8.57;7.00;;;;;;;9.81;54.33;99542.00;1470512;87;21451;-81
2022/04/05 11:09:41;;;;;;;8.83;5.97;;;;;;;9.94;52.59;99543.64;1464295;87;21442;-81
2022/04/05 11:12:19;;;;;;;12.50;6.43;;;;;;;10.13;51.88;99542.49;1470350;87;22301;-80
2022/04/05 11:14:56;;;;;;;8.00;5.97;;;;;;;10.34;51.35;99545.14;1450574;88;21471;-80
2022/04/05 11:17:28;;;;;;;8.93;7.33;;;;;;;10.54;52.22;99544.29;1423281;90;21403;-81
2022/04/05 11:19:58;;;;;;;11.47;6.50;;;;;;;10.66;51.29;99550.86;1473158;86;21403;-80
2022/04/05 11:22:30;;;;;;;11.83;7.03;;;;;;;10.72;51.54;99549.36;1467301;86;21347;-78
2022/04/05 11:25:13;;;;;;;15.97;7.13;;;;;;;10.78;51.56;99545.53;1412446;86;21199;-80
2022/04/05 11:27:49;;;;;;;15.83;7.67;;;;;;;10.81;50.37;99545.69;1556388;86;21265;-80
2022/04/05 11:30:37;;;;;;;13.07;8.07;;;;;;;10.91;50.89;99544.19;1557569;86;22124;-82
2022/04/05 11:33:23;;;;;;;14.17;7.10;;;;;;;10.99;50.85;99545.45;1396400;86;21539;-83
2022/04/05 11:36:01;;;;;;;9.93;7.25;;;;;;;10.92;51.15;99544.50;1504640;86;21279;-83
2022/04/05 11:38:50;;;;;;;12.43;7.73;;;;;;;10.83;51.12;99531.29;1558816;86;22196;-83
2022/04/05 11:41:24;;;;;;;10.00;7.43;;;;;;;10.81;50.95;99539.89;1428922;86;22678;-83